Terminal Aerodrome Forecast
Issued by NWS

Home | Current Version | Previous Version | Text Only | Print | Product List | Glossary On
Versions: 1 2 3 4 5 6 7 8 9 10 11 12 13 14 15 16 17 18
000
FTUS43 KILX 281135
TAFCMI
TAF
KCMI 281135Z 2812/2912 11003KT 3SM BR BKN250
      TEMPO 2812/2814 2SM BR
     FM281400 16004KT P6SM SCT025 BKN250
     FM290600 17004KT 5SM BR SCT035 BKN120
     FM290900 18004KT 4SM BR VCTS SCT035CB BKN120=

USA.gov is the U.S. government's official web portal to all federal, state and local government web resources and services.